Time;durP1;ratioP1;P1;durP2;ratioP2;P2;SDS_P1;SDS_P2;PMS_P1;PMS_P2;Temp;Humidity;BMP_temperature;BMP_pressure;BME280_temperature;BME280_humidity;BME280_pressure;Samples;Min_cycle;Max_cycle;Signal;HPM_P1;HPM_P2
2021/01/22 00:00:10;;;;;;;32.83;18.50;;;;;;;4.49;72.34;98050.54;120095;1149;104345;-74
2021/01/22 00:02:57;;;;;;;34.47;17.87;;;;;;;4.49;72.03;98047.91;120124;1150;104770;-75
2021/01/22 00:05:24;;;;;;;29.40;17.60;;;;;;;4.50;72.00;98044.33;120078;1150;104943;-73
2021/01/22 00:07:51;;;;;;;28.27;16.23;;;;;;;4.51;72.24;98048.66;120110;1148;104348;-75
2021/01/22 00:10:18;;;;;;;28.27;16.40;;;;;;;4.50;72.11;98039.89;120116;1149;104437;-74
2021/01/22 00:12:45;;;;;;;31.00;17.27;;;;;;;4.49;71.98;98038.20;120145;1149;104498;-74
2021/01/22 00:15:13;;;;;;;29.40;16.10;;;;;;;4.49;72.05;98047.91;121175;1149;104460;-74
2021/01/22 00:17:40;;;;;;;29.07;15.13;;;;;;;4.47;72.20;98034.85;120977;1149;104451;-74
2021/01/22 00:20:08;;;;;;;28.37;14.90;;;;;;;4.47;72.21;98048.02;120139;1149;104415;-73
2021/01/22 00:22:35;;;;;;;28.57;16.40;;;;;;;4.45;72.34;98039.37;120115;1150;104548;-74
2021/01/22 00:25:04;;;;;;;29.83;16.23;;;;;;;4.44;71.92;98027.97;120625;1150;104359;-73
2021/01/22 00:27:31;;;;;;;27.42;15.35;;;;;;;4.45;72.04;98036.73;120100;1149;104458;-74
2021/01/22 00:29:58;;;;;;;26.90;14.83;;;;;;;4.44;72.24;98032.41;120067;1149;104375;-73
2021/01/22 00:32:28;;;;;;;29.77;16.03;;;;;;;4.44;71.99;98035.05;120244;1150;104460;-73
2021/01/22 00:34:55;;;;;;;28.13;15.17;;;;;;;4.45;72.20;98034.94;120206;1150;104548;-74
2021/01/22 00:37:22;;;;;;;28.53;15.57;;;;;;;4.46;72.03;98027.89;120221;1150;104433;-73
2021/01/22 00:39:48;;;;;;;27.52;15.60;;;;;;;4.49;72.38;98027.67;120121;1150;104348;-73
2021/01/22 00:42:15;;;;;;;28.63;14.20;;;;;;;4.51;72.59;98027.58;120114;1149;104384;-74
2021/01/22 00:44:43;;;;;;;29.27;16.07;;;;;;;4.52;72.43;98032.73;120188;1150;104734;-74
2021/01/22 00:47:10;;;;;;;27.10;15.27;;;;;;;4.53;72.59;98025.70;120128;1150;104358;-72
2021/01/22 00:49:37;;;;;;;28.10;15.87;;;;;;;4.54;72.28;98022.95;120114;1150;104474;-72
2021/01/22 00:52:04;;;;;;;24.40;13.23;;;;;;;4.58;72.40;98028.88;120142;1148;104436;-73
2021/01/22 00:54:31;;;;;;;27.05;14.78;;;;;;;4.59;72.55;98025.30;120118;1149;104421;-73
2021/01/22 00:56:58;;;;;;;27.43;13.93;;;;;;;4.60;72.58;98025.19;120187;1150;104426;-73
2021/01/22 00:59:26;;;;;;;26.57;14.93;;;;;;;4.60;72.54;98019.92;120099;1150;104445;-72
2021/01/22 01:01:53;;;;;;;26.40;15.17;;;;;;;4.62;72.60;98018.03;120065;1150;104348;-73
2021/01/22 01:04:20;;;;;;;27.65;15.30;;;;;;;4.66;72.51;98012.57;120305;1150;104461;-73
2021/01/22 01:06:47;;;;;;;30.47;16.13;;;;;;;4.67;72.50;97996.68;120048;1150;104442;-73
2021/01/22 01:09:14;;;;;;;29.80;14.83;;;;;;;4.70;72.67;98003.52;120048;1150;104404;-74
2021/01/22 01:11:43;;;;;;;27.87;14.50;;;;;;;4.71;72.54;97994.67;120081;1150;104416;-73
2021/01/22 01:14:11;;;;;;;27.63;13.87;;;;;;;4.73;72.37;97985.71;120653;1150;104356;-72
2021/01/22 01:16:39;;;;;;;26.10;14.20;;;;;;;4.75;72.38;97985.62;120127;1150;104526;-73
2021/01/22 01:19:07;;;;;;;27.20;14.23;;;;;;;4.75;72.28;97978.55;120079;1150;104379;-73
2021/01/22 01:21:34;;;;;;;24.73;12.87;;;;;;;4.76;72.47;97976.78;120919;1149;104410;-69
2021/01/22 01:24:02;;;;;;;29.80;14.33;;;;;;;4.75;72.39;97975.09;120138;1149;104343;-70
2021/01/22 01:26:31;;;;;;;28.03;14.43;;;;;;;4.75;72.57;97964.55;120103;1150;104407;-73
2021/01/22 01:28:59;;;;;;;26.63;13.30;;;;;;;4.73;72.46;97961.17;120211;1149;104713;-73
2021/01/22 01:31:27;;;;;;;25.55;12.85;;;;;;;4.72;72.42;97962.95;120950;1150;102432;-73
2021/01/22 01:33:55;;;;;;;27.05;13.90;;;;;;;4.73;72.73;97963.81;120111;1149;104441;-73
2021/01/22 01:36:22;;;;;;;26.70;13.90;;;;;;;4.75;72.57;97956.65;120102;1149;104444;-73
2021/01/22 01:38:50;;;;;;;24.43;13.07;;;;;;;4.75;72.71;97946.11;120151;1149;104349;-73
2021/01/22 01:41:18;;;;;;;25.25;14.00;;;;;;;4.76;72.74;97945.16;120116;1149;103705;-72
2021/01/22 01:43:44;;;;;;;26.70;13.23;;;;;;;4.79;72.64;97944.96;120106;1149;104439;-73
2021/01/22 01:46:11;;;;;;;26.13;13.67;;;;;;;4.81;72.58;97947.48;120118;1149;104370;-73
2021/01/22 01:48:39;;;;;;;26.40;12.98;;;;;;;4.80;72.76;97941.38;120058;1149;104386;-73
2021/01/22 01:51:06;;;;;;;27.57;13.37;;;;;;;4.81;72.92;97937.80;120288;1150;106139;-74
2021/01/22 01:53:34;;;;;;;25.40;13.05;;;;;;;4.84;72.95;97939.38;120202;1150;104378;-73
2021/01/22 01:56:03;;;;;;;26.50;13.00;;;;;;;4.86;72.77;97940.11;120186;1149;104872;-74
2021/01/22 01:58:31;;;;;;;24.97;12.03;;;;;;;4.88;72.69;97936.45;120202;1150;104316;-74
2021/01/22 02:00:59;;;;;;;26.03;12.80;;;;;;;4.90;72.87;97928.42;120082;1149;104439;-72
2021/01/22 02:03:27;;;;;;;25.30;13.83;;;;;;;4.91;72.76;97932.75;121568;1148;104339;-72
2021/01/22 02:05:54;;;;;;;25.20;14.00;;;;;;;4.92;72.71;97922.09;120096;1150;104431;-72
2021/01/22 02:08:25;;;;;;;29.37;13.80;;;;;;;4.93;72.84;97930.85;120089;1150;106598;-72
2021/01/22 02:10:53;;;;;;;25.03;12.97;;;;;;;4.95;72.58;97917.55;121110;1148;104461;-72
2021/01/22 02:13:21;;;;;;;27.50;15.20;;;;;;;4.96;72.71;97908.70;120105;1150;104406;-71
2021/01/22 02:15:50;;;;;;;24.40;13.27;;;;;;;4.96;72.88;97904.30;120107;1150;103066;-73
2021/01/22 02:18:17;;;;;;;25.40;13.50;;;;;;;4.98;72.73;97898.91;120148;1149;104477;-73
2021/01/22 02:20:44;;;;;;;24.70;12.93;;;;;;;4.98;72.31;97899.77;120890;1150;102360;-74
2021/01/22 02:23:14;;;;;;;23.77;12.37;;;;;;;4.97;72.93;97892.80;120127;1150;104407;-73
2021/01/22 02:25:42;;;;;;;23.43;11.70;;;;;;;4.97;72.70;97898.08;120069;1149;104359;-75
2021/01/22 02:28:13;;;;;;;22.77;11.60;;;;;;;4.97;72.74;97881.41;120904;1149;104426;-73
2021/01/22 02:30:46;;;;;;;25.10;11.77;;;;;;;4.96;72.89;97885.84;120108;1151;104451;-73
2021/01/22 02:33:16;;;;;;;26.30;12.97;;;;;;;4.97;72.87;97887.53;120128;1149;104847;-72
2021/01/22 02:35:50;;;;;;;26.17;14.10;;;;;;;4.97;72.95;97884.89;120024;1150;104361;-72
2021/01/22 02:38:21;;;;;;;23.70;13.00;;;;;;;4.98;72.63;97893.63;120092;1150;104381;-72
2021/01/22 02:40:49;;;;;;;23.93;12.37;;;;;;;4.98;73.15;97885.73;120241;1149;104463;-72
2021/01/22 02:43:17;;;;;;;23.40;11.83;;;;;;;4.98;72.87;97889.22;120151;1150;104343;-71
2021/01/22 02:45:45;;;;;;;23.40;12.30;;;;;;;4.99;72.97;97882.14;120105;1149;104368;-72
2021/01/22 02:48:14;;;;;;;26.40;12.03;;;;;;;5.00;72.80;97889.10;120222;1149;104447;-72
2021/01/22 02:50:42;;;;;;;23.90;12.00;;;;;;;4.99;72.94;97883.00;120167;1150;104445;-76
2021/01/22 02:53:09;;;;;;;25.80;13.70;;;;;;;5.00;72.96;97879.42;120266;1150;104341;-75
2021/01/22 02:55:36;;;;;;;25.55;12.60;;;;;;;5.01;73.00;97882.87;120226;1150;104492;-74
2021/01/22 02:58:34;;;;;;;25.43;13.13;;;;;;;5.03;72.91;97875.71;120145;1149;104455;-75
2021/01/22 03:01:08;;;;;;;24.67;12.90;;;;;;;5.07;72.82;97866.65;120094;1150;104369;-75
2021/01/22 03:03:48;;;;;;;25.47;14.17;;;;;;;5.10;72.96;97869.07;120148;1150;104510;-73
2021/01/22 03:06:24;;;;;;;28.73;13.90;;;;;;;5.12;72.99;97868.95;120221;1149;104432;-72
2021/01/22 03:08:55;;;;;;;24.07;12.43;;;;;;;5.12;72.99;97845.23;120113;1149;104348;-74
2021/01/22 03:11:26;;;;;;;24.93;13.27;;;;;;;5.11;72.97;97857.58;120139;1149;104437;-73
2021/01/22 03:13:58;;;;;;;23.57;11.80;;;;;;;5.11;73.27;97862.85;120998;1149;104366;-74
2021/01/22 03:16:26;;;;;;;25.57;12.73;;;;;;;5.11;73.10;97852.31;120110;1150;104380;-72
2021/01/22 03:19:01;;;;;;;25.37;13.67;;;;;;;5.11;73.03;97860.22;120206;1150;104341;-72
2021/01/22 03:21:29;;;;;;;27.10;13.23;;;;;;;5.10;72.87;97855.89;120142;1150;104687;-73
2021/01/22 03:23:57;;;;;;;24.50;13.37;;;;;;;5.11;73.32;97854.95;120102;1149;104369;-72
2021/01/22 03:26:25;;;;;;;25.53;12.97;;;;;;;5.12;72.97;97859.27;120316;1149;104367;-72
2021/01/22 03:28:52;;;;;;;24.67;13.33;;;;;;;5.11;73.06;97857.58;120182;1149;104383;-73
2021/01/22 03:31:19;;;;;;;23.30;12.63;;;;;;;5.09;72.76;97848.11;120206;1149;104451;-73
2021/01/22 03:33:46;;;;;;;25.20;12.67;;;;;;;5.08;72.78;97854.33;120108;1150;104539;-70
2021/01/22 03:36:15;;;;;;;25.45;12.90;;;;;;;5.08;73.03;97859.59;120057;1149;104351;-71
2021/01/22 03:38:43;;;;;;;25.63;12.77;;;;;;;5.08;72.84;97859.59;120089;1150;104348;-71
2021/01/22 03:41:11;;;;;;;23.43;11.37;;;;;;;5.08;73.13;97855.16;120107;1150;104529;-72
2021/01/22 03:43:38;;;;;;;25.60;12.33;;;;;;;5.09;72.79;97840.20;120165;1149;104407;-71
2021/01/22 03:46:05;;;;;;;23.20;12.43;;;;;;;5.10;72.91;97837.44;120849;1148;104371;-73
2021/01/22 03:48:32;;;;;;;26.87;12.40;;;;;;;5.13;73.15;97841.64;120055;1149;104413;-74
2021/01/22 03:50:59;;;;;;;25.83;12.60;;;;;;;5.13;73.21;97823.19;120067;1150;104498;-74
2021/01/22 03:53:27;;;;;;;23.33;11.93;;;;;;;5.14;72.79;97825.73;120115;1150;104441;-75
2021/01/22 03:55:54;;;;;;;26.57;13.37;;;;;;;5.16;72.94;97825.61;120255;1149;104422;-74
2021/01/22 03:58:21;;;;;;;27.97;12.90;;;;;;;5.16;73.09;97821.20;120113;1150;104773;-74
2021/01/22 04:00:48;;;;;;;24.05;11.43;;;;;;;5.18;73.26;97823.71;120206;1149;104513;-73
2021/01/22 04:03:15;;;;;;;26.15;12.65;;;;;;;5.18;73.32;97816.66;120113;1150;104351;-70
2021/01/22 04:05:43;;;;;;;23.25;11.35;;;;;;;5.18;73.09;97806.12;120164;1151;104343;-73
2021/01/22 04:08:10;;;;;;;27.90;14.03;;;;;;;5.18;72.89;97811.39;120163;1149;104410;-73
2021/01/22 04:10:37;;;;;;;23.90;12.43;;;;;;;5.18;72.98;97806.12;120117;1150;104521;-72
2021/01/22 04:13:04;;;;;;;22.87;10.98;;;;;;;5.18;73.30;97799.98;120134;1150;104452;-73
2021/01/22 04:15:31;;;;;;;23.00;10.90;;;;;;;5.19;72.98;97793.77;120075;1149;104407;-72
2021/01/22 04:17:58;;;;;;;23.50;10.53;;;;;;;5.19;72.98;97791.13;120203;1149;104436;-70
2021/01/22 04:20:26;;;;;;;24.23;12.57;;;;;;;5.17;72.78;97785.98;120093;1149;104372;-71
2021/01/22 04:22:52;;;;;;;23.92;10.80;;;;;;;5.17;73.09;97782.48;121281;1150;104365;-72
2021/01/22 04:25:19;;;;;;;24.93;12.07;;;;;;;5.13;73.14;97770.47;120984;1151;103368;-71
2021/01/22 04:27:46;;;;;;;21.87;10.70;;;;;;;5.12;73.22;97764.38;120125;1149;104471;-72
2021/01/22 04:30:14;;;;;;;27.13;12.33;;;;;;;5.11;72.99;97773.23;120113;1150;104534;-74
2021/01/22 04:32:41;;;;;;;25.17;12.03;;;;;;;5.10;73.37;97778.59;120158;1149;104461;-75
2021/01/22 04:35:15;;;;;;;26.40;11.87;;;;;;;5.10;72.95;97779.45;120093;1150;104478;-75
2021/01/22 04:37:45;;;;;;;21.43;10.77;;;;;;;5.10;73.05;97774.18;120067;1150;104420;-74
2021/01/22 04:40:12;;;;;;;26.77;12.40;;;;;;;5.11;73.36;97767.95;120142;1149;104793;-75
2021/01/22 04:42:42;;;;;;;23.20;10.50;;;;;;;5.12;73.04;97771.42;120160;1150;104638;-75
2021/01/22 04:45:14;;;;;;;24.53;11.93;;;;;;;5.14;73.03;97769.52;120066;1149;104840;-74
2021/01/22 04:47:42;;;;;;;24.10;11.70;;;;;;;5.13;73.26;97755.52;120100;1149;104345;-75
2021/01/22 04:50:17;;;;;;;20.65;9.95;;;;;;;5.14;73.26;97749.30;120091;1150;104351;-73
2021/01/22 04:52:46;;;;;;;23.27;10.97;;;;;;;5.16;73.14;97757.94;120114;1150;104369;-73
2021/01/22 04:55:17;;;;;;;22.47;10.17;;;;;;;5.18;73.16;97749.91;120088;1149;104799;-72
2021/01/22 04:57:46;;;;;;;24.33;10.80;;;;;;;5.18;72.85;97747.27;120097;1149;104389;-76
2021/01/22 05:00:15;;;;;;;22.43;9.93;;;;;;;5.19;73.01;97747.17;121018;1148;104436;-74
2021/01/22 05:02:44;;;;;;;23.10;10.93;;;;;;;5.19;73.10;97747.17;120344;1149;104513;-73
2021/01/22 05:05:12;;;;;;;21.17;9.50;;;;;;;5.18;73.07;97742.84;121345;1149;102177;-73
2021/01/22 05:07:39;;;;;;;22.30;10.33;;;;;;;5.19;73.21;97741.04;120149;1150;104949;-72
2021/01/22 05:10:07;;;;;;;23.07;10.90;;;;;;;5.20;73.15;97738.31;120155;1150;104459;-72
2021/01/22 05:12:36;;;;;;;23.03;10.03;;;;;;;5.20;73.14;97743.58;120152;1149;104441;-72
2021/01/22 05:15:21;;;;;;;23.13;9.83;;;;;;;5.21;73.30;97741.77;120203;1150;104487;-71
2021/01/22 05:17:55;;;;;;;;;;;;;;;5.24;73.14;97732.82;120209;1150;104417;-72
2021/01/22 05:20:32;;;;;;;21.17;9.27;;;;;;;5.25;73.23;97729.23;120137;1148;105516;-73
2021/01/22 05:23:07;;;;;;;20.17;9.03;;;;;;;5.27;73.24;97730.79;120178;1150;104464;-77
2021/01/22 05:25:58;;;;;;;22.13;9.67;;;;;;;5.32;73.31;97739.21;120199;1149;104371;-78
2021/01/22 05:28:37;;;;;;;25.53;10.70;;;;;;;5.37;73.15;97723.05;120150;1149;104343;-79
2021/01/22 05:31:09;;;;;;;22.93;10.37;;;;;;;5.39;73.32;97726.41;120214;1148;104393;-75
2021/01/22 05:33:38;;;;;;;23.00;10.47;;;;;;;5.45;72.84;97740.97;120188;1149;104452;-74
2021/01/22 05:36:20;;;;;;;24.57;10.17;;;;;;;5.48;73.45;97749.48;120099;1149;104516;-75
2021/01/22 05:38:50;;;;;;;20.65;9.85;;;;;;;5.52;73.11;97765.91;120177;1149;104348;-74
2021/01/22 05:41:17;;;;;;;22.87;10.60;;;;;;;5.55;73.27;97759.59;120179;1148;104345;-75
2021/01/22 05:43:44;;;;;;;24.07;10.03;;;;;;;5.57;73.34;97769.06;120198;1149;105118;-75
2021/01/22 05:46:22;;;;;;;22.00;8.80;;;;;;;5.58;72.95;97768.11;120518;1150;104504;-74
2021/01/22 05:49:06;;;;;;;22.83;10.53;;;;;;;5.59;73.03;97766.33;120114;1148;104372;-73
2021/01/22 05:51:34;;;;;;;21.87;9.40;;;;;;;5.63;72.78;97771.25;120441;1148;104340;-74
2021/01/22 05:54:02;;;;;;;21.93;10.10;;;;;;;5.66;72.92;97762.29;121602;1148;104403;-75
2021/01/22 05:56:30;;;;;;;22.33;9.57;;;;;;;5.68;73.10;97765.66;120074;1150;104438;-74
2021/01/22 05:58:57;;;;;;;21.87;10.07;;;;;;;5.72;72.74;97766.27;120183;1150;104437;-74
2021/01/22 06:01:28;;;;;;;23.03;10.60;;;;;;;5.75;72.73;97758.13;120101;1150;104519;-75
2021/01/22 06:04:08;;;;;;;23.07;10.03;;;;;;;5.78;72.88;97769.28;120189;1149;104909;-74
2021/01/22 06:06:36;;;;;;;23.47;10.10;;;;;;;5.81;72.93;97761.14;120171;1149;104369;-74
2021/01/22 06:09:07;;;;;;;21.60;10.00;;;;;;;5.84;72.83;97743.39;120210;1150;104839;-75
2021/01/22 06:11:35;;;;;;;21.63;9.80;;;;;;;5.85;72.70;97739.80;120167;1150;104938;-76
2021/01/22 06:14:06;;;;;;;21.77;9.90;;;;;;;5.85;72.70;97750.36;120199;1149;104396;-75
2021/01/22 06:16:37;;;;;;;22.33;10.27;;;;;;;5.86;73.16;97730.93;120232;1149;104344;-75
2021/01/22 06:19:10;;;;;;;22.60;9.73;;;;;;;5.87;72.76;97719.41;120209;1148;104447;-73
2021/01/22 06:22:01;;;;;;;20.53;8.80;;;;;;;5.86;72.89;97725.65;120251;1150;104441;-73
2021/01/22 06:24:29;;;;;;;21.97;9.87;;;;;;;5.87;73.21;97708.86;120208;1150;104474;-76
2021/01/22 06:26:56;;;;;;;21.73;9.27;;;;;;;5.86;72.60;97721.23;120185;1150;104900;-77
2021/01/22 06:29:28;;;;;;;21.43;9.03;;;;;;;5.88;72.81;97729.02;120274;1150;104449;-73
2021/01/22 06:31:56;;;;;;;20.50;8.90;;;;;;;5.87;72.78;97719.41;120185;1150;104413;-72
2021/01/22 06:34:39;;;;;;;22.50;8.43;;;;;;;5.88;72.67;97708.77;120189;1149;104451;-75
2021/01/22 06:37:09;;;;;;;20.27;8.07;;;;;;;5.87;72.74;97708.86;120176;1150;104439;-76
2021/01/22 06:39:38;;;;;;;21.30;8.77;;;;;;;5.90;72.68;97701.57;120164;1149;104376;-74
2021/01/22 06:42:07;;;;;;;23.43;9.50;;;;;;;5.91;72.77;97710.31;120204;1150;104492;-73
2021/01/22 06:44:35;;;;;;;21.20;8.77;;;;;;;5.94;72.82;97702.17;120189;1150;104364;-74
2021/01/22 06:47:12;;;;;;;24.70;8.70;;;;;;;5.95;72.85;97702.04;120195;1150;104461;-74
2021/01/22 06:49:41;;;;;;;20.67;8.77;;;;;;;5.99;72.79;97692.11;120195;1150;104342;-73
2021/01/22 06:52:13;;;;;;;22.03;8.03;;;;;;;6.03;73.23;97701.51;120146;1150;104348;-75
2021/01/22 06:54:58;;;;;;;18.27;7.60;;;;;;;6.08;72.66;97701.14;120146;1149;104401;-75
2021/01/22 06:57:26;;;;;;;23.07;9.07;;;;;;;6.14;73.02;97692.77;120187;1149;104928;-75
2021/01/22 06:59:53;;;;;;;19.57;7.07;;;;;;;6.23;72.95;97688.56;120125;1151;104565;-75
2021/01/22 07:02:32;;;;;;;22.33;8.17;;;;;;;6.29;72.98;97689.91;120183;1149;104413;-74
2021/01/22 07:05:02;;;;;;;23.57;9.20;;;;;;;6.31;72.87;97683.53;120195;1149;104470;-75
2021/01/22 07:07:47;;;;;;;19.70;7.27;;;;;;;6.35;72.83;97678.84;120182;1148;104488;-75
2021/01/22 07:10:16;;;;;;;19.20;7.20;;;;;;;6.38;72.59;97668.05;120169;1150;104346;-74
2021/01/22 07:12:47;;;;;;;19.43;7.87;;;;;;;6.40;72.32;97653.77;120155;1150;104375;-73
2021/01/22 07:15:24;;;;;;;18.67;7.93;;;;;;;6.42;72.71;97656.28;120209;1148;104413;-75
2021/01/22 07:17:57;;;;;;;21.27;8.23;;;;;;;6.45;72.27;97652.58;120137;1149;105609;-73
2021/01/22 07:20:24;;;;;;;19.05;8.70;;;;;;;6.47;72.71;97653.30;120185;1150;104398;-75
2021/01/22 07:23:00;;;;;;;23.65;8.90;;;;;;;6.49;72.96;97651.38;120154;1150;104920;-79
2021/01/22 07:25:30;;;;;;;20.20;8.07;;;;;;;6.50;72.47;97643.31;120158;1150;104417;-76
2021/01/22 07:28:12;;;;;;;19.87;7.57;;;;;;;6.51;72.92;97642.36;120173;1150;104476;-76
2021/01/22 07:30:42;;;;;;;18.20;7.00;;;;;;;6.55;72.25;97653.51;120123;1150;104435;-75
2021/01/22 07:33:38;;;;;;;19.00;6.67;;;;;;;6.62;72.90;97651.24;120186;1150;104796;-75
2021/01/22 07:36:09;;;;;;;17.50;6.67;;;;;;;6.70;72.26;97657.59;120130;1149;104413;-74
2021/01/22 07:38:38;;;;;;;16.33;5.60;;;;;;;6.79;72.15;97634.04;120184;1150;104340;-76
2021/01/22 07:41:09;;;;;;;17.87;6.87;;;;;;;6.87;72.69;97628.98;120171;1150;104471;-76
2021/01/22 07:43:37;;;;;;;21.50;7.00;;;;;;;6.92;72.08;97634.74;120173;1149;104445;-75
2021/01/22 07:46:13;;;;;;;15.67;6.07;;;;;;;6.95;71.84;97631.83;120196;1150;104363;-76
2021/01/22 07:48:41;;;;;;;18.70;6.75;;;;;;;7.00;72.56;97634.94;120169;1148;104439;-76
2021/01/22 07:51:39;;;;;;;17.80;6.70;;;;;;;7.04;72.36;97632.91;120184;1150;104449;-75
2021/01/22 07:54:08;;;;;;;17.17;6.70;;;;;;;7.07;72.38;97648.52;120231;1149;104485;-76
2021/01/22 07:56:40;;;;;;;19.23;6.43;;;;;;;7.10;71.65;97640.34;120144;1150;104361;-76
2021/01/22 07:59:12;;;;;;;19.63;7.57;;;;;;;7.15;72.22;97645.24;120162;1150;104501;-77
2021/01/22 08:01:41;;;;;;;15.53;6.83;;;;;;;7.16;72.20;97644.28;120186;1150;104516;-78
2021/01/22 08:04:10;;;;;;;14.03;5.73;;;;;;;7.17;71.59;97660.97;120207;1150;104451;-77
2021/01/22 08:06:48;;;;;;;14.90;5.93;;;;;;;7.18;72.17;97662.65;120264;1151;104353;-77
2021/01/22 08:09:18;;;;;;;17.57;6.53;;;;;;;7.18;71.89;97658.22;120164;1149;104352;-75
2021/01/22 08:11:51;;;;;;;16.33;6.83;;;;;;;7.19;71.49;97673.12;120222;1148;104348;-73
2021/01/22 08:14:30;;;;;;;17.83;7.03;;;;;;;7.21;71.89;97681.77;120141;1150;104448;-74
2021/01/22 08:16:59;;;;;;;19.93;6.77;;;;;;;7.21;72.00;97687.06;120180;1150;104813;-73
2021/01/22 08:19:34;;;;;;;15.60;6.07;;;;;;;7.22;72.07;97686.09;120238;1150;104602;-74
2021/01/22 08:22:02;;;;;;;16.07;6.20;;;;;;;7.23;71.30;97679.84;120238;1150;104348;-74
2021/01/22 08:24:30;;;;;;;15.67;6.13;;;;;;;7.22;71.64;97688.74;120174;1150;104346;-77
2021/01/22 08:27:04;;;;;;;19.70;6.60;;;;;;;7.24;71.79;97681.52;120162;1150;104441;-76
2021/01/22 08:29:35;;;;;;;18.35;6.70;;;;;;;7.26;71.76;97689.31;120190;1149;104348;-78
2021/01/22 08:32:04;;;;;;;14.13;6.27;;;;;;;7.27;71.59;97683.92;120188;1149;104419;-75
2021/01/22 08:34:37;;;;;;;14.40;6.00;;;;;;;7.27;71.60;97677.77;120156;1150;104462;-76
2021/01/22 08:37:08;;;;;;;18.27;6.50;;;;;;;7.26;71.34;97676.09;120184;1149;104799;-75
2021/01/22 08:39:47;;;;;;;17.23;7.07;;;;;;;7.26;71.49;97679.59;120149;1150;104877;-76
2021/01/22 08:42:15;;;;;;;18.87;5.90;;;;;;;7.26;71.44;97705.19;120195;1150;104404;-76
2021/01/22 08:45:06;;;;;;;19.42;6.40;;;;;;;7.27;71.47;97697.15;120186;1150;104409;-76
2021/01/22 08:47:41;;;;;;;14.73;6.27;;;;;;;7.28;71.40;97682.10;120118;1151;104463;-78
2021/01/22 08:50:09;;;;;;;15.53;6.65;;;;;;;7.27;71.33;97681.28;120188;1150;104812;-76
2021/01/22 08:52:36;;;;;;;18.00;7.20;;;;;;;7.28;70.99;97692.68;120231;1148;104796;-77
2021/01/22 08:55:17;;;;;;;19.80;7.45;;;;;;;7.29;70.90;97710.23;120235;1150;104341;-75
2021/01/22 08:58:03;;;;;;;20.50;7.03;;;;;;;7.29;71.13;97712.88;120191;1151;104444;-77
2021/01/22 09:00:31;;;;;;;16.63;7.03;;;;;;;7.33;70.81;97703.73;120138;1149;104364;-74
2021/01/22 09:02:59;;;;;;;17.70;7.17;;;;;;;7.37;71.02;97718.39;120209;1150;104413;-77
2021/01/22 09:05:29;;;;;;;18.70;6.77;;;;;;;7.41;71.13;97697.80;120153;1151;104407;-75
2021/01/22 09:08:09;;;;;;;17.73;6.80;;;;;;;7.47;71.05;97707.89;120185;1150;104438;-74
2021/01/22 09:10:47;;;;;;;16.70;6.47;;;;;;;7.54;70.63;97703.78;120176;1150;104435;-77
2021/01/22 09:13:17;;;;;;;17.57;6.33;;;;;;;7.61;70.41;97685.58;120267;1149;104501;-72
2021/01/22 09:15:47;;;;;;;16.40;6.90;;;;;;;7.67;70.91;97692.19;120144;1148;104393;-72
2021/01/22 09:18:19;;;;;;;16.00;5.50;;;;;;;7.70;70.92;97689.30;120201;1150;104362;-72
2021/01/22 09:21:01;;;;;;;19.87;6.77;;;;;;;7.72;70.27;97690.83;120192;1150;104342;-77
2021/01/22 09:23:33;;;;;;;19.83;7.13;;;;;;;7.72;70.26;97669.66;120172;1149;104413;-76
2021/01/22 09:26:00;;;;;;;21.77;7.73;;;;;;;7.75;70.26;97665.91;120218;1150;104431;-74
2021/01/22 09:28:30;;;;;;;17.17;6.87;;;;;;;7.77;70.73;97673.73;120129;1150;104368;-75
2021/01/22 09:30:57;;;;;;;17.30;6.80;;;;;;;7.79;70.12;97656.73;120167;1149;104968;-74
2021/01/22 09:33:25;;;;;;;19.30;7.40;;;;;;;7.90;70.15;97661.16;120238;1151;104432;-75
2021/01/22 09:35:52;;;;;;;22.95;8.45;;;;;;;8.00;70.07;97662.03;120158;1150;104429;-77
2021/01/22 09:38:19;;;;;;;19.97;7.57;;;;;;;8.06;69.99;97655.39;120128;1150;104557;-76
2021/01/22 09:40:49;;;;;;;18.93;7.27;;;;;;;8.17;69.85;97663.24;120236;1150;104436;-76
2021/01/22 09:43:17;;;;;;;16.53;6.27;;;;;;;8.21;69.80;97645.30;120295;1150;104334;-76
2021/01/22 09:45:45;;;;;;;15.77;5.83;;;;;;;8.24;70.13;97637.09;120215;1150;104337;-75
2021/01/22 09:48:16;;;;;;;16.90;6.58;;;;;;;8.25;70.17;97646.71;120237;1150;105105;-76
2021/01/22 09:50:44;;;;;;;15.83;6.40;;;;;;;8.26;69.93;97648.39;120198;1150;104338;-75
2021/01/22 09:53:12;;;;;;;16.37;6.28;;;;;;;8.27;70.31;97639.47;120218;1150;104816;-74
2021/01/22 09:55:50;;;;;;;16.50;6.97;;;;;;;8.27;70.02;97642.12;120083;1150;104414;-73
2021/01/22 09:58:18;;;;;;;16.43;6.80;;;;;;;8.24;69.58;97650.33;120143;1150;104401;-74
2021/01/22 10:00:46;;;;;;;17.47;6.67;;;;;;;8.19;69.99;97640.11;120109;1149;104582;-75
2021/01/22 10:03:14;;;;;;;20.70;7.77;;;;;;;8.13;69.92;97639.81;120113;1150;104442;-75
2021/01/22 10:05:42;;;;;;;17.00;7.17;;;;;;;8.12;69.69;97632.84;120105;1150;104427;-75
2021/01/22 10:08:09;;;;;;;17.93;7.00;;;;;;;8.12;69.65;97638.13;120096;1151;104336;-75
2021/01/22 10:10:37;;;;;;;15.03;6.50;;;;;;;8.06;69.50;97642.16;120241;1149;104337;-77
2021/01/22 10:13:04;;;;;;;16.53;6.60;;;;;;;8.06;69.28;97634.21;120180;1149;104483;-76
2021/01/22 10:15:32;;;;;;;15.33;6.53;;;;;;;8.05;68.95;97638.65;120163;1150;104373;-75
2021/01/22 10:17:59;;;;;;;16.53;5.90;;;;;;;8.12;69.25;97649.58;120175;1150;104564;-75
2021/01/22 10:20:29;;;;;;;14.80;6.30;;;;;;;8.27;69.54;97636.83;120227;1150;104365;-76
2021/01/22 10:22:56;;;;;;;17.20;7.17;;;;;;;8.37;69.13;97638.66;120216;1150;104503;-76
2021/01/22 10:25:22;;;;;;;18.57;6.67;;;;;;;8.39;69.56;97634.06;120178;1149;104473;-73
2021/01/22 10:27:53;;;;;;;15.47;6.53;;;;;;;8.40;69.39;97643.69;120153;1150;104407;-76
2021/01/22 10:30:21;;;;;;;16.10;6.07;;;;;;;8.43;69.47;97628.38;120267;1150;104410;-75
2021/01/22 10:32:48;;;;;;;16.80;6.60;;;;;;;8.45;69.17;97628.23;120169;1149;104414;-76
2021/01/22 10:35:16;;;;;;;17.47;7.17;;;;;;;8.43;69.17;97630.17;120240;1148;104343;-77
2021/01/22 10:37:43;;;;;;;16.87;6.40;;;;;;;8.46;69.37;97632.56;120221;1149;104466;-75
2021/01/22 10:40:11;;;;;;;19.47;6.53;;;;;;;8.45;69.22;97625.58;120177;1149;104451;-75
2021/01/22 10:42:39;;;;;;;15.97;6.90;;;;;;;8.43;69.07;97615.13;120204;1149;104323;-75
2021/01/22 10:45:11;;;;;;;17.83;6.73;;;;;;;8.47;68.87;97620.98;120175;1150;104947;-76
2021/01/22 10:47:39;;;;;;;17.00;6.40;;;;;;;8.46;68.92;97601.62;120129;1150;104356;-75
2021/01/22 10:50:09;;;;;;;17.35;6.60;;;;;;;8.47;68.80;97611.25;120145;1150;104411;-76
2021/01/22 10:52:36;;;;;;;17.80;7.43;;;;;;;8.50;68.91;97596.91;120197;1150;104367;-77
2021/01/22 10:55:04;;;;;;;16.07;6.80;;;;;;;8.56;69.15;97603.50;120242;1150;104450;-73
2021/01/22 10:57:33;;;;;;;15.80;6.27;;;;;;;8.59;69.23;97603.20;120213;1150;104479;-77
2021/01/22 11:00:00;;;;;;;16.80;6.63;;;;;;;8.57;68.92;97605.14;120157;1148;104334;-76
2021/01/22 11:02:30;;;;;;;14.85;5.95;;;;;;;8.57;68.73;97613.09;120156;1151;104532;-77
2021/01/22 11:04:57;;;;;;;15.23;5.87;;;;;;;8.63;68.93;97613.41;120143;1150;104397;-75
2021/01/22 11:07:24;;;;;;;19.10;7.57;;;;;;;8.64;68.40;97614.23;120125;1150;104350;-77
2021/01/22 11:09:51;;;;;;;18.53;7.20;;;;;;;8.63;68.84;97605.47;120163;1150;104335;-76
2021/01/22 11:12:18;;;;;;;16.17;6.40;;;;;;;8.60;68.48;97605.73;120182;1150;104354;-76
2021/01/22 11:14:47;;;;;;;17.37;6.37;;;;;;;8.61;68.54;97590.66;120184;1150;104339;-75
2021/01/22 11:17:14;;;;;;;18.10;6.50;;;;;;;8.62;68.45;97592.33;120136;1150;104391;-74
2021/01/22 11:19:43;;;;;;;17.30;6.93;;;;;;;8.61;68.72;97595.95;120117;1149;104362;-77
2021/01/22 11:22:11;;;;;;;18.20;6.70;;;;;;;8.55;68.38;97586.74;120146;1150;104467;-78
2021/01/22 11:24:40;;;;;;;17.73;6.67;;;;;;;8.56;68.36;97577.82;120116;1151;104489;-79
2021/01/22 11:27:06;;;;;;;15.05;6.20;;;;;;;8.60;68.24;97583.67;120136;1150;104439;-78